createdAt,value
2018-10-02T00:00:08.343Z,7
2018-10-02T00:05:02.483Z,7
2018-10-02T00:10:36.140Z,6.9
2018-10-02T00:15:20.167Z,6.9
2018-10-02T00:20:03.072Z,6.9
2018-10-02T00:25:07.502Z,6.9
2018-10-02T00:30:02.784Z,6.9
2018-10-02T00:35:07.845Z,6.8
2018-10-02T00:40:02.674Z,6.8
2018-10-02T00:45:05.469Z,6.8
2018-10-02T00:50:02.724Z,6.7
2018-10-02T00:55:20.749Z,6.7
2018-10-02T01:00:03.011Z,6.7
2018-10-02T01:05:22.620Z,6.7
2018-10-02T01:10:04.951Z,6.6
2018-10-02T01:15:02.800Z,6.6
2018-10-02T01:20:05.739Z,6.5
2018-10-02T01:25:12.616Z,6.4
2018-10-02T01:30:02.928Z,6.4
2018-10-02T01:35:03.223Z,6.4
2018-10-02T01:40:05.581Z,6.3
2018-10-02T01:45:13.383Z,6.2
2018-10-02T01:50:07.776Z,6.2
2018-10-02T01:55:07.991Z,6.2
2018-10-02T02:00:08.321Z,6.1
2018-10-02T02:05:05.000Z,6.1
2018-10-02T02:10:02.735Z,6.1
2018-10-02T02:15:05.595Z,6.1
2018-10-02T02:20:03.156Z,6.1
2018-10-02T02:25:33.680Z,6.1
2018-10-02T02:30:08.039Z,6.1
2018-10-02T02:35:05.803Z,6.1
2018-10-02T02:40:10.211Z,6
2018-10-02T02:45:15.571Z,6
2018-10-02T02:50:02.894Z,6
2018-10-02T02:55:05.718Z,6
2018-10-02T03:00:20.770Z,5.9
2018-10-02T03:05:13.467Z,5.9
2018-10-02T03:10:18.524Z,5.9
2018-10-02T03:15:35.439Z,5.9
2018-10-02T03:20:05.331Z,5.9
2018-10-02T03:25:05.607Z,5.9
2018-10-02T03:30:05.382Z,5.9
2018-10-02T03:35:38.613Z,5.9
2018-10-02T03:40:02.438Z,5.9
2018-10-02T03:45:02.815Z,5.9
2018-10-02T03:50:20.779Z,5.8
2018-10-02T03:55:02.405Z,5.8
2018-10-02T04:00:07.741Z,5.8
2018-10-02T04:05:13.164Z,5.7
2018-10-02T04:10:28.307Z,5.8
2018-10-02T04:15:07.695Z,5.7
2018-10-02T04:20:36.038Z,5.7
2018-10-02T04:25:02.453Z,5.7
2018-10-02T04:30:08.023Z,5.7
2018-10-02T04:35:07.672Z,5.7
2018-10-02T04:40:02.444Z,5.7
2018-10-02T04:45:02.834Z,5.7
2018-10-02T04:50:20.824Z,5.6
2018-10-02T04:55:04.919Z,5.6
2018-10-02T05:00:17.843Z,5.6
2018-10-02T05:05:25.926Z,5.6
2018-10-02T05:10:10.439Z,5.6
2018-10-02T05:20:10.293Z,5.6
2018-10-02T05:25:10.644Z,5.6
2018-10-02T05:30:02.981Z,5.6
2018-10-02T05:35:05.910Z,5.6
2018-10-02T05:40:02.898Z,5.6
2018-10-02T05:45:23.410Z,5.6
2018-10-02T05:50:20.443Z,5.6
2018-10-02T05:55:03.090Z,5.6
2018-10-02T06:00:10.089Z,5.7
2018-10-02T06:05:02.776Z,5.7
2018-10-02T06:10:07.610Z,5.9
2018-10-02T06:15:07.888Z,6
2018-10-02T06:20:26.052Z,6.1
2018-10-02T06:25:04.941Z,6.3
2018-10-02T06:30:02.401Z,6.3
2018-10-02T06:35:07.905Z,6.6
2018-10-02T06:40:03.142Z,6.5
2018-10-02T06:45:07.605Z,6.6
2018-10-02T06:50:20.855Z,6.7
2018-10-02T06:55:18.250Z,6.8
2018-10-02T07:00:02.554Z,6.8
2018-10-02T07:05:02.947Z,7
2018-10-02T07:10:02.695Z,7
2018-10-02T07:15:08.222Z,7.2
2018-10-02T07:20:02.966Z,7.2
2018-10-02T07:25:13.412Z,7.3
2018-10-02T07:30:08.025Z,7.4
2018-10-02T07:35:23.526Z,7.5
2018-10-02T07:40:05.876Z,7.6
2018-10-02T07:45:02.873Z,7.6
2018-10-02T07:50:12.773Z,7.7
2018-10-02T07:55:15.582Z,7.8
2018-10-02T08:00:08.061Z,7.9
2018-10-02T08:05:10.936Z,8
2018-10-02T08:10:07.993Z,8.2
2018-10-02T08:15:03.038Z,8.2
2018-10-02T08:20:02.865Z,8.3
2018-10-02T08:25:23.275Z,8.6
2018-10-02T08:30:15.351Z,8.8
2018-10-02T08:35:10.843Z,8.9
2018-10-02T08:40:08.326Z,9
2018-10-02T08:45:20.403Z,9.2
2018-10-02T08:50:12.804Z,9.2
2018-10-02T08:55:08.405Z,9.3
2018-10-02T09:05:18.133Z,9.5
2018-10-02T09:10:10.577Z,9.5
2018-10-02T09:15:12.324Z,9.6
2018-10-02T09:20:28.476Z,9.9
2018-10-02T09:25:23.045Z,10.1
2018-10-02T09:30:10.100Z,10.2
2018-10-02T09:35:05.767Z,10.3
2018-10-02T09:40:20.291Z,10.2
2018-10-02T09:45:15.637Z,10.3
2018-10-02T09:50:02.999Z,10.2
2018-10-02T10:00:08.405Z,10.3
2018-10-02T10:05:10.446Z,10.3
2018-10-02T10:10:03.329Z,10.3
2018-10-02T10:15:02.760Z,10.3
2018-10-02T10:20:05.804Z,10.5
2018-10-02T10:25:05.155Z,10.7
2018-10-02T10:30:17.682Z,10.7
2018-10-02T10:35:07.938Z,10.6
2018-10-02T10:40:07.825Z,10.6
2018-10-02T10:45:05.629Z,10.6
2018-10-02T10:50:08.004Z,10.4
2018-10-02T10:55:10.866Z,10.3
2018-10-02T11:00:03.325Z,10.3
2018-10-02T11:05:17.810Z,10.1
2018-10-02T11:10:05.125Z,10.2
2018-10-02T11:15:10.567Z,10
2018-10-02T11:20:05.633Z,9.9
2018-10-02T11:25:02.451Z,9.9
2018-10-02T11:30:18.003Z,9.8
2018-10-02T11:35:25.984Z,9.8
2018-10-02T11:40:23.396Z,9.9
2018-10-02T11:45:15.445Z,9.9
2018-10-02T11:50:28.060Z,9.9
2018-10-02T11:55:08.478Z,10
2018-10-02T12:00:25.789Z,10.1
2018-10-02T12:05:15.953Z,10
2018-10-02T12:10:05.277Z,10
2018-10-02T12:15:05.288Z,10.1
2018-10-02T12:20:07.883Z,10.2
2018-10-02T12:25:28.382Z,10.1
2018-10-02T12:30:35.620Z,10
2018-10-02T12:35:25.785Z,9.9
2018-10-02T12:40:30.435Z,9.8
2018-10-02T12:45:02.707Z,9.8
2018-10-02T12:50:05.888Z,9.7
2018-10-02T12:55:02.844Z,9.7
2018-10-02T13:00:05.706Z,9.5
2018-10-02T13:05:02.506Z,9.5
2018-10-02T13:10:08.485Z,9.5
2018-10-02T13:15:05.259Z,9.4
2018-10-02T13:20:23.236Z,9.3
2018-10-02T13:25:10.105Z,9.3
2018-10-02T13:30:17.610Z,9.3
2018-10-02T13:35:05.681Z,9.2
2018-10-02T13:40:02.474Z,9.2
2018-10-02T13:45:30.586Z,9.1
2018-10-02T13:50:18.186Z,8.9
2018-10-02T13:55:03.270Z,8.9
2018-10-02T14:00:22.853Z,8.9
2018-10-02T14:05:18.187Z,9
2018-10-02T14:10:03.268Z,8.9
2018-10-02T14:15:05.339Z,9
2018-10-02T14:20:05.315Z,9.1
2018-10-02T14:25:05.702Z,9.1
2018-10-02T14:30:05.554Z,9.1
2018-10-02T14:40:02.996Z,9.1
2018-10-02T14:45:35.342Z,9.2
2018-10-02T14:55:10.489Z,9.2
2018-10-02T15:00:10.455Z,9.1
2018-10-02T15:10:33.320Z,9.1
2018-10-02T15:15:30.475Z,9
2018-10-02T15:20:15.596Z,9
2018-10-02T15:25:05.856Z,9
2018-10-02T15:30:15.869Z,9
2018-10-02T15:35:17.741Z,9
2018-10-02T15:40:02.894Z,9
2018-10-02T15:45:05.751Z,8.9
2018-10-02T15:50:10.761Z,8.9
2018-10-02T15:55:15.142Z,8.8
2018-10-02T16:00:22.717Z,8.8
2018-10-02T16:05:20.512Z,8.8
2018-10-02T16:10:23.555Z,8.8
2018-10-02T16:15:15.324Z,8.8
2018-10-02T16:20:30.709Z,8.9
2018-10-02T16:30:03.040Z,8.9
2018-10-02T16:35:07.444Z,8.9
2018-10-02T16:40:08.325Z,9
2018-10-02T16:45:20.338Z,9
2018-10-02T16:50:07.766Z,9
2018-10-02T16:55:05.694Z,9.1
2018-10-02T17:00:05.579Z,9.1
2018-10-02T17:05:02.486Z,9.1
2018-10-02T17:10:08.391Z,9.2
2018-10-02T17:15:05.153Z,9.2
2018-10-02T17:20:07.652Z,9.3
2018-10-02T17:25:15.578Z,9.4
2018-10-02T17:35:15.774Z,9.4
2018-10-02T17:40:07.755Z,9.3
2018-10-02T17:45:05.694Z,9.2
2018-10-02T17:55:10.842Z,9.1
2018-10-02T18:00:03.304Z,9.1
2018-10-02T18:05:10.263Z,9.1
2018-10-02T18:15:08.302Z,9.2
2018-10-02T18:20:12.854Z,9.2
2018-10-02T18:25:05.537Z,9.3
2018-10-02T18:30:02.882Z,9.3
2018-10-02T18:35:08.303Z,9.3
2018-10-02T18:45:32.757Z,9.4
2018-10-02T18:50:03.095Z,9.4
2018-10-02T18:55:02.369Z,7.1
2018-10-02T19:00:08.276Z,9.6
2018-10-02T19:05:05.288Z,9.7
2018-10-02T19:10:05.688Z,9.7
2018-10-02T19:15:02.462Z,9.7
2018-10-02T19:20:02.883Z,9.8
2018-10-02T19:25:13.269Z,9.9
2018-10-02T19:30:10.145Z,9.9
2018-10-02T19:40:02.607Z,10
2018-10-02T19:45:02.924Z,10
2018-10-02T19:55:05.122Z,10.1
2018-10-02T20:00:07.551Z,10.1
2018-10-02T20:05:18.381Z,10.1
2018-10-02T20:10:05.846Z,10.2
2018-10-02T20:15:05.167Z,10.2
2018-10-02T20:20:27.892Z,10.2
2018-10-02T20:25:05.805Z,10.2
2018-10-02T20:30:05.705Z,10.3
2018-10-02T20:35:05.044Z,10.3
2018-10-02T20:45:08.114Z,10.3
2018-10-02T20:50:30.287Z,10.4
2018-10-02T20:55:05.145Z,10.5
2018-10-02T21:00:07.554Z,10.5
2018-10-02T21:05:07.885Z,10.5
2018-10-02T21:10:05.249Z,10.6
2018-10-02T21:15:08.405Z,10.6
2018-10-02T21:20:02.989Z,10.6
2018-10-02T21:25:15.960Z,10.6
2018-10-02T21:30:08.419Z,10.6
2018-10-02T21:35:02.643Z,10.6
2018-10-02T21:40:10.258Z,10.6
2018-10-02T21:45:04.954Z,10.7
2018-10-02T21:50:05.847Z,10.6
2018-10-02T21:55:22.825Z,10.6
2018-10-02T22:00:08.279Z,10.6
2018-10-02T22:05:05.053Z,10.6
2018-10-02T22:10:07.964Z,10.6
2018-10-02T22:15:10.845Z,10.5
2018-10-02T22:20:03.376Z,10.6
2018-10-02T22:25:25.386Z,10.6
2018-10-02T22:30:05.215Z,10.6
2018-10-02T22:35:10.615Z,10.6
2018-10-02T22:40:22.755Z,10.6
2018-10-02T22:45:18.037Z,10.7
2018-10-02T22:50:09.954Z,10.7
2018-10-02T22:55:05.314Z,10.8
2018-10-02T23:00:02.604Z,10.8
2018-10-02T23:05:13.123Z,10.9
2018-10-02T23:10:10.480Z,10.9
2018-10-02T23:15:05.809Z,10.9
2018-10-02T23:20:05.799Z,11
2018-10-02T23:25:05.097Z,11
2018-10-02T23:30:05.015Z,11.1
2018-10-02T23:35:05.390Z,11.1
2018-10-02T23:40:05.788Z,11.1
2018-10-02T23:45:07.667Z,11.1
2018-10-02T23:50:03.039Z,11.1
2018-10-02T23:55:09.993Z,11.1
